Time;durP1;ratioP1;P1;durP2;ratioP2;P2;SDS_P1;SDS_P2;PMS_P1;PMS_P2;Temp;Humidity;BMP_temperature;BMP_pressure;BME280_temperature;BME280_humidity;BME280_pressure;Samples;Min_cycle;Max_cycle;Signal;HPM_P1;HPM_P2
2022/09/22 00:00:06;;;;;;;7.75;3.05;;;;;;;6.98;64.51;100800.88;10377894;28;20052;-86
2022/09/22 00:05:08;;;;;;;5.22;2.72;;;;;;;6.99;64.44;100801.75;10375809;28;20393;-85
2022/09/22 00:10:09;;;;;;;4.25;2.13;;;;;;;7.03;64.14;100800.75;10374376;28;20054;-85
2022/09/22 00:15:11;;;;;;;12.68;2.97;;;;;;;6.98;64.13;100813.03;10372797;28;20064;-85
2022/09/22 00:20:13;;;;;;;15.15;2.80;;;;;;;6.97;64.43;100803.53;10373700;28;20486;-85
2022/09/22 00:25:15;;;;;;;67.90;3.90;;;;;;;6.87;64.52;100804.72;10374993;28;20530;-85
2022/09/22 00:30:17;;;;;;;15.55;2.90;;;;;;;6.83;64.65;100792.72;10375678;28;20057;-85
2022/09/22 00:35:19;;;;;;;56.40;3.83;;;;;;;6.78;64.63;100800.66;10372027;28;20673;-84
2022/09/22 00:40:21;;;;;;;64.15;3.95;;;;;;;6.74;64.46;100785.19;10373272;28;20052;-85
2022/09/22 00:45:23;;;;;;;61.70;3.55;;;;;;;6.71;64.63;100790.50;10371609;28;20054;-85
2022/09/22 00:50:25;;;;;;;25.15;3.28;;;;;;;6.69;64.68;100797.47;10380597;28;20060;-85
2022/09/22 00:55:29;;;;;;;46.05;3.38;;;;;;;6.66;64.69;100787.16;10381479;28;20054;-85
2022/09/22 01:00:31;;;;;;;82.60;3.72;;;;;;;6.59;64.89;100788.25;10380342;28;20045;-85
2022/09/22 01:05:35;;;;;;;35.53;3.05;;;;;;;6.58;65.09;100782.19;10385787;28;20469;-84
2022/09/22 01:10:37;;;;;;;63.35;4.32;;;;;;;6.51;65.17;100790.25;10379625;28;20042;-85
2022/09/22 01:16:07;;;;;;;81.45;4.45;;;;;;;6.51;65.46;100785.88;10381059;28;20061;-85
2022/09/22 01:21:23;;;;;;;41.50;3.08;;;;;;;6.51;65.42;100785.88;10381552;28;20041;-84
2022/09/22 01:26:52;;;;;;;139.68;5.18;;;;;;;6.45;65.27;100786.06;10379948;28;20076;-84
2022/09/22 01:32:26;;;;;;;89.03;4.93;;;;;;;6.40;65.50;100784.50;10378313;28;20056;-84
2022/09/22 01:37:41;;;;;;;99.82;5.03;;;;;;;6.48;65.58;100774.72;10350973;28;20640;-84
2022/09/22 01:42:50;;;;;;;41.92;3.20;;;;;;;6.49;65.40;100776.44;10379323;28;20053;-84
2022/09/22 01:47:57;;;;;;;53.67;3.20;;;;;;;6.47;65.56;100783.44;10379515;28;20431;-85
2022/09/22 01:53:05;;;;;;;152.57;4.75;;;;;;;6.46;65.51;100781.72;10377227;28;20049;-84
2022/09/22 01:58:13;;;;;;;131.02;4.22;;;;;;;6.42;65.67;100791.34;10380426;28;20053;-84
2022/09/22 02:03:24;;;;;;;432.05;10.68;;;;;;;6.28;65.85;100780.50;10379287;28;20050;-85
2022/09/22 02:08:34;;;;;;;376.98;8.35;;;;;;;6.14;66.40;100778.25;10385146;28;20061;-84
2022/09/22 02:13:36;;;;;;;480.50;11.93;;;;;;;6.08;66.18;100777.59;10384686;28;21081;-84
2022/09/22 02:19:09;;;;;;;555.35;14.07;;;;;;;6.04;66.57;100773.38;10400701;28;20609;-84
2022/09/22 02:24:46;;;;;;;176.90;5.72;;;;;;;5.95;66.35;100773.63;10379494;28;21478;-84
2022/09/22 02:29:58;;;;;;;139.25;4.40;;;;;;;6.03;66.48;100762.13;10357517;28;20057;-84
2022/09/22 02:35:00;;;;;;;343.10;8.20;;;;;;;5.97;66.34;100756.25;10383659;28;20050;-84
2022/09/22 02:40:51;;;;;;;254.68;7.45;;;;;;;5.94;66.39;100754.59;10415239;28;20052;-84
2022/09/22 02:46:12;;;;;;;247.93;5.50;;;;;;;5.89;66.77;100746.09;10355516;28;20053;-84
2022/09/22 02:51:15;;;;;;;333.98;8.55;;;;;;;5.97;66.37;100749.31;10394253;28;20384;-84
2022/09/22 02:56:16;;;;;;;348.05;7.82;;;;;;;5.91;66.21;100743.44;10381414;28;20496;-85
2022/09/22 03:01:18;;;;;;;371.17;8.90;;;;;;;5.84;66.27;100741.94;10381782;28;20050;-84
2022/09/22 03:06:20;;;;;;;172.63;4.68;;;;;;;5.83;66.56;100740.22;10377215;28;20451;-84
2022/09/22 03:11:21;;;;;;;170.48;5.95;;;;;;;5.80;66.25;100738.56;10407444;28;20054;-84
2022/09/22 03:16:23;;;;;;;109.03;4.00;;;;;;;5.78;66.41;100736.91;10376835;28;20054;-84
2022/09/22 03:21:25;;;;;;;201.90;5.72;;;;;;;5.71;66.45;100738.81;10376068;28;20061;-84
2022/09/22 03:26:52;;;;;;;320.35;8.00;;;;;;;5.77;66.78;100733.47;10374150;28;20057;-84
2022/09/22 03:31:53;;;;;;;318.33;7.55;;;;;;;5.83;66.38;100735.03;10404238;28;20060;-84
2022/09/22 03:36:55;;;;;;;285.20;6.70;;;;;;;5.79;65.97;100726.47;10373520;28;20053;-84
2022/09/22 03:41:57;;;;;;;421.48;10.60;;;;;;;5.74;66.38;100733.53;10375797;28;20431;-84
2022/09/22 03:46:59;;;;;;;224.75;5.40;;;;;;;5.72;66.82;100727.53;10374240;28;20111;-84
2022/09/22 03:52:01;;;;;;;298.75;7.55;;;;;;;5.69;66.63;100730.22;10375280;28;20523;-84
2022/09/22 03:57:03;;;;;;;141.52;4.38;;;;;;;5.79;66.77;100729.06;10373364;28;20064;-84
2022/09/22 04:02:05;;;;;;;290.35;9.10;;;;;;;5.77;66.63;100728.28;10372853;28;20045;-84
2022/09/22 04:07:06;;;;;;;368.23;11.15;;;;;;;5.74;66.71;100722.31;10374393;28;20081;-84
2022/09/22 04:12:08;;;;;;;312.58;8.63;;;;;;;5.75;66.70;100717.06;10407838;28;20045;-84
2022/09/22 04:17:10;;;;;;;110.30;5.15;;;;;;;5.89;66.63;100717.53;10371940;28;20042;-84
2022/09/22 04:22:12;;;;;;;88.13;4.40;;;;;;;6.06;66.55;100717.88;10376198;28;20058;-84
2022/09/22 04:27:14;;;;;;;147.15;5.50;;;;;;;6.20;66.42;100715.78;10373471;28;20535;-84
2022/09/22 04:32:21;;;;;;;48.88;3.85;;;;;;;6.24;66.33;100717.38;10370783;28;20050;-84
2022/09/22 04:37:22;;;;;;;79.00;4.40;;;;;;;6.22;66.24;100715.72;10368701;28;20435;-84
2022/09/22 04:42:25;;;;;;;103.30;5.35;;;;;;;6.19;66.51;100715.78;10370886;28;20049;-84
2022/09/22 04:47:28;;;;;;;269.70;7.68;;;;;;;6.26;66.19;100710.44;10373120;28;20060;-85
2022/09/22 04:52:30;;;;;;;229.30;10.13;;;;;;;6.12;66.39;100716.88;10373620;28;20050;-83
2022/09/22 04:57:32;;;;;;;159.27;6.82;;;;;;;6.28;66.23;100712.97;10371713;28;20547;-84
2022/09/22 05:02:34;;;;;;;230.30;9.93;;;;;;;6.26;65.88;100715.63;10372360;28;20057;-84
2022/09/22 05:07:40;;;;;;;160.25;6.47;;;;;;;6.13;65.82;100710.78;10372310;28;20057;-84
2022/09/22 05:12:43;;;;;;;663.60;20.35;;;;;;;5.86;66.36;100717.59;10373737;28;20050;-84
2022/09/22 05:17:51;;;;;;;199.27;8.60;;;;;;;5.88;67.10;100722.78;10372432;28;20048;-84
2022/09/22 05:22:53;;;;;;;532.70;17.75;;;;;;;5.86;66.48;100725.41;10372677;28;20072;-84
2022/09/22 05:27:55;;;;;;;621.65;17.88;;;;;;;5.79;66.59;100733.41;10373417;28;20057;-84
2022/09/22 05:32:57;;;;;;;514.25;18.08;;;;;;;5.86;66.51;100734.97;10379038;28;20041;-84
2022/09/22 05:37:59;;;;;;;460.75;13.35;;;;;;;5.81;66.73;100739.41;10381274;28;20054;-84
2022/09/22 05:43:00;;;;;;;213.52;8.50;;;;;;;5.71;67.13;100733.63;10380028;28;20046;-85
2022/09/22 05:48:02;;;;;;;263.67;9.70;;;;;;;5.96;66.63;100746.78;10382237;28;20065;-87
2022/09/22 05:53:06;;;;;;;336.65;10.32;;;;;;;6.07;66.25;100742.13;10381133;28;20057;-87
2022/09/22 05:58:10;;;;;;;258.85;10.30;;;;;;;6.12;66.49;100740.25;10413826;28;20058;-88
2022/09/22 06:03:12;;;;;;;77.85;6.15;;;;;;;6.20;66.43;100741.75;10381132;28;20181;-88
2022/09/22 06:08:15;;;;;;;267.58;11.05;;;;;;;6.49;66.04;100743.47;10376879;28;20514;-88
2022/09/22 06:13:18;;;;;;;311.35;12.07;;;;;;;6.60;65.47;100737.97;10375294;28;20053;-88
2022/09/22 06:18:19;;;;;;;70.65;6.30;;;;;;;6.56;65.52;100738.97;10375805;28;20045;-87
2022/09/22 06:23:25;;;;;;;240.82;9.77;;;;;;;6.53;65.02;100749.47;10377144;28;20050;-87
2022/09/22 06:28:27;;;;;;;213.90;11.45;;;;;;;6.34;65.13;100744.81;10380210;28;20435;-87
2022/09/22 06:33:29;;;;;;;310.25;11.60;;;;;;;6.23;64.84;100739.03;10381900;28;20052;-86
2022/09/22 06:38:30;;;;;;;326.17;10.82;;;;;;;6.34;64.93;100741.38;10376856;28;20049;-87
2022/09/22 06:43:36;;;;;;;294.10;10.98;;;;;;;6.33;65.20;100735.31;10373321;28;20093;-87
2022/09/22 06:48:38;;;;;;;238.30;9.70;;;;;;;6.75;65.17;100737.50;10379501;28;20515;-87
2022/09/22 06:53:39;;;;;;;473.88;15.05;;;;;;;6.79;64.34;100736.50;10379973;28;20046;-87
2022/09/22 06:58:43;;;;;;;609.53;20.05;;;;;;;6.78;64.16;100737.41;10376182;28;20493;-87
2022/09/22 07:04:04;;;;;;;310.23;10.90;;;;;;;6.93;64.42;100736.91;10378060;28;20049;-87
2022/09/22 07:09:08;;;;;;;200.65;10.45;;;;;;;7.00;64.20;100738.41;10376175;28;20049;-87
2022/09/22 07:14:11;;;;;;;395.80;14.65;;;;;;;6.94;64.15;100730.81;10376340;28;20056;-85
2022/09/22 07:19:14;;;;;;;319.95;13.85;;;;;;;7.02;64.15;100728.84;10382891;28;20093;-85
2022/09/22 07:24:15;;;;;;;476.13;14.73;;;;;;;7.10;63.83;100729.44;10411385;28;20057;-86
2022/09/22 07:29:17;;;;;;;204.60;8.30;;;;;;;7.40;63.81;100732.75;10377751;28;20046;-85
2022/09/22 07:34:19;;;;;;;101.95;8.93;;;;;;;7.64;63.00;100730.16;10378021;28;20054;-85
2022/09/22 07:39:20;;;;;;;54.15;6.72;;;;;;;7.56;63.21;100733.91;10376934;28;20049;-85
2022/09/22 07:49:50;;;;;;;14.82;5.28;;;;;;;8.33;62.36;100726.75;10368303;28;20080;-85
2022/09/22 07:54:51;;;;;;;19.50;6.03;;;;;;;8.58;61.82;100730.13;10379072;28;20534;-83
2022/09/22 07:59:53;;;;;;;79.18;6.90;;;;;;;8.74;61.24;100727.75;10377986;28;20054;-84
2022/09/22 08:04:58;;;;;;;7.97;5.30;;;;;;;8.97;61.48;100729.47;10373886;28;20068;-89
2022/09/22 08:10:00;;;;;;;9.18;4.80;;;;;;;9.35;60.79;100726.09;10383381;28;20045;-85
2022/09/22 08:15:02;;;;;;;9.13;4.75;;;;;;;9.58;60.07;100726.81;10379740;28;20055;-86
2022/09/22 08:20:05;;;;;;;8.52;5.50;;;;;;;9.68;59.68;100722.09;10371758;28;20393;-86
2022/09/22 08:25:11;;;;;;;8.80;4.90;;;;;;;9.76;59.51;100725.22;10372935;28;20037;-86
2022/09/22 08:30:12;;;;;;;6.80;5.07;;;;;;;10.02;58.95;100716.22;10376118;28;20061;-86
2022/09/22 08:35:14;;;;;;;6.38;5.20;;;;;;;10.06;58.71;100717.78;10371834;28;20120;-86
2022/09/22 08:40:22;;;;;;;6.78;4.93;;;;;;;10.17;58.35;100712.91;10371134;28;20526;-86
2022/09/22 08:45:34;;;;;;;8.15;4.82;;;;;;;11.04;57.09;100711.34;10374568;28;20050;-86
2022/09/22 08:56:22;;;;;;;8.60;5.60;;;;;;;10.90;56.02;100710.28;10374651;28;20111;-85
2022/09/22 09:01:53;;;;;;;11.32;5.15;;;;;;;11.13;56.87;100710.88;10374288;28;21107;-86
2022/09/22 09:07:09;;;;;;;9.97;5.40;;;;;;;11.45;56.26;100701.41;10403418;28;20054;-86
2022/09/22 09:12:23;;;;;;;8.80;5.32;;;;;;;11.59;55.01;100705.94;10398096;28;20073;-86
2022/09/22 09:17:29;;;;;;;9.35;4.95;;;;;;;11.73;55.00;100703.44;10384281;28;21043;-85
2022/09/22 09:22:39;;;;;;;9.32;4.80;;;;;;;11.90;54.34;100687.69;10386433;28;20073;-85
2022/09/22 09:27:52;;;;;;;12.95;4.95;;;;;;;12.14;54.13;100691.63;10381134;28;20124;-85
2022/09/22 09:33:04;;;;;;;9.05;5.13;;;;;;;12.45;53.63;100686.44;10381900;28;21058;-85
2022/09/22 09:38:10;;;;;;;11.15;5.10;;;;;;;12.70;52.98;100680.66;10381301;28;20056;-86
2022/09/22 09:43:12;;;;;;;9.10;4.50;;;;;;;13.07;52.51;100684.66;10398954;28;20128;-85
2022/09/22 09:48:42;;;;;;;8.38;4.65;;;;;;;13.42;50.76;100660.63;10384073;28;20058;-85
2022/09/22 09:53:46;;;;;;;7.13;4.10;;;;;;;13.58;50.96;100664.03;10383734;28;20157;-85
2022/09/22 10:04:36;;;;;;;8.43;3.97;;;;;;;13.66;50.20;100653.03;10383015;28;20057;-85
2022/09/22 10:09:39;;;;;;;9.70;3.60;;;;;;;14.08;50.43;100639.91;10378231;28;20053;-85
2022/09/22 10:14:51;;;;;;;8.40;4.05;;;;;;;14.27;49.34;100642.19;10416175;28;20096;-84
2022/09/22 10:20:21;;;;;;;7.28;3.42;;;;;;;14.17;49.08;100636.66;10414461;28;20076;-85
2022/09/22 10:25:37;;;;;;;8.95;3.75;;;;;;;14.60;49.44;100621.63;10380261;28;20499;-85
2022/09/22 10:30:59;;;;;;;7.00;3.25;;;;;;;14.71;47.07;100618.28;10381413;28;20159;-84
2022/09/22 10:36:08;;;;;;;6.20;3.05;;;;;;;14.76;48.23;100610.94;10399764;28;20565;-85
2022/09/22 10:41:30;;;;;;;6.18;3.08;;;;;;;14.95;48.00;100604.34;10381174;28;20061;-85
2022/09/22 10:47:13;;;;;;;6.35;2.78;;;;;;;14.90;47.04;100595.06;10378821;28;20053;-85
2022/09/22 10:52:34;;;;;;;7.68;2.67;;;;;;;14.85;46.88;100587.47;10373492;28;20415;-85
2022/09/22 10:57:48;;;;;;;6.32;2.80;;;;;;;14.92;47.41;100580.00;10382336;28;20057;-84
2022/09/22 11:03:41;;;;;;;9.93;2.47;;;;;;;15.05;46.40;100571.16;10379543;28;20397;-85
2022/09/22 11:15:12;;;;;;;9.80;2.38;;;;;;;15.23;45.13;100559.34;10382316;28;20037;-85
2022/09/22 11:20:38;;;;;;;5.93;2.40;;;;;;;15.34;45.91;100559.47;10392873;28;20049;-85
2022/09/22 11:26:12;;;;;;;4.00;2.08;;;;;;;15.34;45.52;100551.56;10372952;28;20041;-85
2022/09/22 11:32:00;;;;;;;7.30;2.28;;;;;;;15.51;43.95;100547.75;10394754;28;20064;-84
2022/09/22 11:37:37;;;;;;;7.80;2.08;;;;;;;15.89;44.89;100534.50;10378779;28;20152;-84
2022/09/22 11:42:45;;;;;;;5.10;1.75;;;;;;;16.05;44.44;100530.63;10370982;28;20095;-84
2022/09/22 11:48:07;;;;;;;5.95;2.22;;;;;;;16.02;41.77;100527.34;10375779;28;20146;-84
2022/09/22 11:53:26;;;;;;;7.28;2.00;;;;;;;16.34;41.86;100517.09;10378720;28;20136;-84
2022/09/22 11:58:34;;;;;;;3.88;1.45;;;;;;;16.50;42.74;100515.03;10377825;28;20168;-84
2022/09/22 12:03:49;;;;;;;4.50;1.80;;;;;;;16.66;40.62;100505.00;10376365;28;20060;-84
2022/09/22 12:09:03;;;;;;;4.45;1.70;;;;;;;16.68;40.86;100505.72;10376030;28;20764;-84
2022/09/22 12:14:13;;;;;;;6.78;1.70;;;;;;;16.92;40.83;100495.91;10376742;28;20062;-84
2022/09/22 12:19:33;;;;;;;4.82;1.42;;;;;;;17.26;39.05;100479.09;10388976;28;20061;-84
2022/09/22 12:24:35;;;;;;;4.45;1.40;;;;;;;17.60;38.73;100475.53;10372471;28;20057;-84
2022/09/22 12:29:37;;;;;;;3.33;1.55;;;;;;;17.81;38.02;100473.75;10371704;28;20583;-84
2022/09/22 12:34:46;;;;;;;3.83;1.55;;;;;;;17.98;37.00;100463.59;10370721;28;20041;-84
2022/09/22 12:39:49;;;;;;;5.45;1.50;;;;;;;18.20;36.28;100453.00;10372443;28;20144;-84
2022/09/22 12:44:59;;;;;;;3.47;1.38;;;;;;;18.53;37.14;100440.41;10373924;28;20136;-85
2022/09/22 12:50:05;;;;;;;5.28;1.48;;;;;;;18.68;36.21;100443.56;10400605;28;21095;-85
2022/09/22 13:08:47;;;;;;;6.07;1.50;;;;;;;18.78;35.29;100420.59;10400539;28;21048;-83
2022/09/22 13:20:42;;;;;;;3.00;1.10;;;;;;;18.88;32.84;100408.22;10407827;28;20045;-84
2022/09/22 13:26:14;;;;;;;3.55;1.20;;;;;;;18.89;32.99;100403.78;10385452;28;20057;-84
2022/09/22 13:32:08;;;;;;;4.88;1.20;;;;;;;18.68;31.05;100401.16;10414087;28;20053;-83
2022/09/22 13:44:28;;;;;;;4.70;1.30;;;;;;;18.80;32.55;100394.81;10319048;28;20480;-84
2022/09/22 14:29:19;;;;;;;3.85;1.20;;;;;;;18.28;32.21;100352.56;10291677;28;20139;-84
2022/09/22 14:35:23;;;;;;;3.55;1.20;;;;;;;18.30;30.60;100348.00;10303926;28;20073;-83
2022/09/22 14:41:33;;;;;;;5.07;1.38;;;;;;;18.12;31.89;100349.47;10434491;28;20138;-83
2022/09/22 14:46:42;;;;;;;4.28;1.20;;;;;;;18.26;32.13;100347.38;10403164;28;20406;-82
2022/09/22 15:50:58;;;;;;;;;;;;;;;;;;;;;
2022/09/22 15:56:28;;;;;;;4.13;1.63;;;;;;;17.58;33.34;100300.25;10245018;28;20101;-83
2022/09/22 16:02:10;;;;;;;5.68;1.83;;;;;;;17.61;34.49;100297.31;10397130;28;20053;-83
2022/09/22 16:07:53;;;;;;;4.82;1.48;;;;;;;17.52;34.33;100298.09;10417430;28;20057;-82
2022/09/22 16:12:58;;;;;;;7.85;1.70;;;;;;;17.45;35.46;100288.97;10399427;28;21026;-82
2022/09/22 16:18:54;;;;;;;6.28;1.60;;;;;;;17.32;34.98;100293.59;10284088;28;20067;-82
2022/09/22 16:24:21;;;;;;;9.30;1.95;;;;;;;17.30;36.61;100287.56;10280492;28;20043;-83
2022/09/22 16:29:24;;;;;;;6.40;1.67;;;;;;;17.32;36.86;100290.94;10302951;28;20050;-83
2022/09/22 16:34:25;;;;;;;4.70;1.50;;;;;;;17.29;37.40;100285.03;10289259;28;20656;-83
2022/09/22 16:39:27;;;;;;;4.22;1.80;;;;;;;17.15;38.03;100291.47;10283006;28;20091;-83
2022/09/22 16:44:29;;;;;;;4.55;1.70;;;;;;;17.01;38.51;100291.75;10299932;28;20051;-83
2022/09/22 16:49:32;;;;;;;5.05;2.10;;;;;;;16.84;39.07;100289.59;10286271;28;20278;-83
2022/09/22 16:54:36;;;;;;;4.35;1.80;;;;;;;16.60;40.27;100288.91;10335530;28;20049;-84
2022/09/22 16:59:37;;;;;;;4.97;1.67;;;;;;;16.39;41.03;100287.91;10425371;28;20057;-83
2022/09/22 17:04:39;;;;;;;7.03;3.38;;;;;;;16.07;42.61;100288.63;10393393;28;20072;-83
2022/09/22 17:09:41;;;;;;;5.85;2.50;;;;;;;15.71;43.43;100299.34;10392678;28;20052;-84
2022/09/22 17:14:47;;;;;;;5.10;1.98;;;;;;;15.34;43.69;100289.81;10409128;28;20052;-83
2022/09/22 17:19:49;;;;;;;6.20;2.10;;;;;;;15.04;44.62;100294.69;10407352;28;20068;-84
2022/09/22 17:24:53;;;;;;;6.18;2.40;;;;;;;14.79;45.38;100294.75;10391799;28;20088;-83
2022/09/22 17:29:55;;;;;;;8.25;3.45;;;;;;;14.55;46.42;100295.53;10395755;28;20064;-83
2022/09/22 17:34:57;;;;;;;7.45;3.38;;;;;;;14.09;46.74;100293.53;10401383;28;20049;-84
2022/09/22 17:39:58;;;;;;;8.40;4.15;;;;;;;13.97;47.37;100295.22;10413960;28;20050;-83
2022/09/22 17:45:01;;;;;;;7.93;3.45;;;;;;;13.81;47.67;100297.19;10400389;28;20136;-84
2022/09/22 17:55:24;;;;;;;;;;;;;;;13.09;50.19;100308.06;10417775;28;20083;-84
2022/09/22 18:00:26;;;;;;;7.13;3.45;;;;;;;13.23;50.10;100308.03;10396495;28;20581;-84
2022/09/22 18:05:30;;;;;;;6.93;2.88;;;;;;;13.11;50.36;100310.63;10398812;28;20044;-83
2022/09/22 18:10:32;;;;;;;5.75;3.22;;;;;;;12.93;50.85;100312.63;10414435;28;20474;-83
2022/09/22 18:15:35;;;;;;;9.18;2.80;;;;;;;12.57;51.59;100310.53;10400668;28;20056;-84
2022/09/22 18:20:36;;;;;;;4.38;2.42;;;;;;;12.44;52.20;100311.38;10416894;28;20053;-85
2022/09/22 18:25:40;;;;;;;7.47;2.38;;;;;;;12.35;52.40;100312.78;10403150;28;20481;-84
2022/09/22 18:30:42;;;;;;;6.65;2.63;;;;;;;12.09;53.02;100316.09;10400518;28;20053;-84
2022/09/22 18:35:46;;;;;;;8.70;2.30;;;;;;;11.77;53.79;100318.00;10421636;28;20048;-84
2022/09/22 18:40:50;;;;;;;5.28;2.33;;;;;;;11.62;54.30;100331.16;10398760;28;20049;-84
2022/09/22 18:45:51;;;;;;;4.65;2.28;;;;;;;11.58;54.98;100333.09;10400127;28;20051;-84
2022/09/22 18:50:53;;;;;;;4.90;2.35;;;;;;;11.61;54.84;100340.78;10402781;28;20838;-84
2022/09/22 18:55:55;;;;;;;7.75;2.30;;;;;;;11.58;54.89;100346.19;10401465;28;20494;-84
2022/09/22 19:00:58;;;;;;;7.93;2.50;;;;;;;11.47;55.31;100339.88;10412962;28;20053;-84
2022/09/22 19:06:00;;;;;;;10.30;2.72;;;;;;;11.27;56.15;100347.06;10401047;28;20060;-84
2022/09/22 19:11:01;;;;;;;6.85;2.70;;;;;;;11.18;56.23;100341.50;10440776;28;20532;-85
2022/09/22 19:16:03;;;;;;;6.88;2.40;;;;;;;11.15;56.50;100346.94;10399549;28;20045;-84
2022/09/22 19:21:05;;;;;;;6.55;2.65;;;;;;;11.07;57.08;100359.59;10400646;28;20057;-84
2022/09/22 19:26:11;;;;;;;5.22;2.50;;;;;;;10.93;57.24;100347.22;10420704;28;20045;-84
2022/09/22 19:31:13;;;;;;;4.80;2.35;;;;;;;10.46;58.05;100362.03;10419458;28;20049;-84
2022/09/22 19:36:15;;;;;;;4.57;2.30;;;;;;;10.49;58.78;100351.38;10401188;28;20044;-84
2022/09/22 19:41:16;;;;;;;6.28;2.80;;;;;;;10.56;58.32;100349.28;10434362;28;20514;-84
2022/09/22 19:46:18;;;;;;;5.38;2.60;;;;;;;10.51;58.20;100349.53;10417523;28;20045;-84
2022/09/22 19:51:21;;;;;;;6.78;2.83;;;;;;;10.48;58.11;100349.72;10416329;28;20863;-84
2022/09/22 19:56:23;;;;;;;7.13;2.60;;;;;;;10.36;58.47;100348.56;10399674;28;20052;-84
2022/09/22 20:01:32;;;;;;;10.15;3.00;;;;;;;10.25;58.75;100358.75;10398646;28;20260;-84
2022/09/22 20:06:34;;;;;;;6.75;2.92;;;;;;;10.15;58.95;100346.22;10417278;28;20096;-84
2022/09/22 20:11:48;;;;;;;6.78;2.85;;;;;;;10.06;59.24;100346.69;10414199;28;20064;-84
2022/09/22 20:16:52;;;;;;;6.82;3.20;;;;;;;9.97;59.34;100347.16;10413769;28;20053;-84
2022/09/22 20:22:19;;;;;;;6.88;3.40;;;;;;;9.86;59.88;100344.25;10400567;28;20045;-84
2022/09/22 20:27:26;;;;;;;6.05;2.53;;;;;;;9.88;59.47;100337.16;10400308;28;20049;-85
2022/09/22 20:32:36;;;;;;;5.38;2.83;;;;;;;9.82;59.32;100329.63;10399417;28;20058;-84
2022/09/22 20:37:39;;;;;;;4.87;2.93;;;;;;;9.51;59.61;100336.34;10412409;28;20075;-84
2022/09/22 20:42:41;;;;;;;5.57;2.70;;;;;;;9.54;60.17;100336.19;10402310;28;20502;-84
2022/09/22 20:47:43;;;;;;;6.28;2.80;;;;;;;9.58;60.16;100329.91;10402370;28;20052;-84
2022/09/22 20:52:44;;;;;;;7.97;2.92;;;;;;;9.55;60.53;100329.22;10405110;28;20060;-84
2022/09/22 20:57:46;;;;;;;8.32;3.03;;;;;;;9.43;60.58;100335.03;10429131;28;20080;-85
2022/09/22 21:02:48;;;;;;;6.05;3.20;;;;;;;9.36;60.65;100326.66;10427367;28;20059;-84
2022/09/22 21:10:33;;;;;;;9.23;3.20;;;;;;;9.31;60.74;100330.41;10415376;28;20065;-84
2022/09/22 21:13:11;;;;;;;7.82;3.05;;;;;;;9.27;60.71;100323.66;10431804;28;20041;-84
2022/09/22 21:18:13;;;;;;;5.38;2.90;;;;;;;9.24;61.03;100324.63;10417823;28;20045;-84
2022/09/22 21:23:15;;;;;;;7.90;3.00;;;;;;;9.24;60.94;100322.03;10436370;28;20055;-85
2022/09/22 21:28:17;;;;;;;6.55;2.90;;;;;;;9.22;60.87;100318.63;10415733;28;20102;-84
2022/09/22 21:33:19;;;;;;;7.05;2.95;;;;;;;9.12;60.74;100324.38;10416239;28;20049;-84
2022/09/22 21:38:22;;;;;;;6.65;2.83;;;;;;;9.04;61.25;100318.66;10416847;28;20516;-84
2022/09/22 21:43:24;;;;;;;5.60;2.70;;;;;;;9.00;61.38;100309.28;10417959;28;20491;-84
2022/09/22 21:48:27;;;;;;;7.22;2.70;;;;;;;8.90;61.36;100308.03;10434344;28;20503;-84
2022/09/22 21:53:30;;;;;;;9.77;2.70;;;;;;;8.81;61.36;100298.91;10419491;28;20055;-84
2022/09/22 21:58:34;;;;;;;7.80;3.00;;;;;;;8.64;61.82;100301.44;10418862;28;20140;-84
2022/09/22 22:03:40;;;;;;;7.07;2.83;;;;;;;8.69;61.77;100304.66;10438002;28;20566;-85
2022/09/22 22:09:01;;;;;;;4.47;2.80;;;;;;;8.64;62.07;100299.69;10438170;28;20089;-85
2022/09/22 22:14:05;;;;;;;7.82;2.80;;;;;;;8.56;61.89;100293.13;10432134;28;20422;-84
2022/09/22 22:19:13;;;;;;;7.68;3.22;;;;;;;8.48;62.07;100303.06;10407164;28;20494;-85
2022/09/22 22:29:19;;;;;;;5.28;2.85;;;;;;;8.44;61.94;100293.69;10429516;28;20082;-84
2022/09/22 22:34:24;;;;;;;6.55;3.22;;;;;;;8.44;62.06;100289.31;10444130;28;20401;-84
2022/09/22 22:39:26;;;;;;;6.72;3.10;;;;;;;8.38;62.07;100288.75;10446807;28;20143;-85
2022/09/22 22:44:28;;;;;;;7.38;3.35;;;;;;;8.33;62.11;100290.69;10408933;28;20136;-85
2022/09/22 22:49:30;;;;;;;7.38;3.58;;;;;;;8.31;62.14;100284.72;10411685;28;20049;-84
2022/09/22 22:54:31;;;;;;;8.68;4.03;;;;;;;8.16;62.49;100286.22;10413407;28;20046;-84
2022/09/22 22:59:33;;;;;;;5.78;3.08;;;;;;;8.10;62.26;100277.84;10443586;28;20567;-84
2022/09/22 23:04:35;;;;;;;6.65;3.35;;;;;;;8.08;62.34;100277.06;10410463;28;20044;-85
2022/09/22 23:09:37;;;;;;;7.75;3.25;;;;;;;7.98;62.62;100282.66;10410164;28;20506;-84
2022/09/22 23:15:13;;;;;;;6.65;3.08;;;;;;;7.94;62.68;100273.28;10429938;28;20168;-84
2022/09/22 23:20:15;;;;;;;6.32;3.08;;;;;;;7.88;62.53;100270.94;10444034;28;20064;-84
2022/09/22 23:25:17;;;;;;;6.22;3.50;;;;;;;7.79;62.69;100275.72;10422679;28;20056;-84
2022/09/22 23:30:18;;;;;;;6.10;3.00;;;;;;;7.74;62.86;100268.09;10420952;28;20419;-84
2022/09/22 23:35:20;;;;;;;8.00;3.05;;;;;;;7.66;62.65;100267.56;10440494;28;20045;-85
2022/09/22 23:40:22;;;;;;;9.95;3.22;;;;;;;7.65;62.62;100271.06;10408088;28;20470;-84
2022/09/22 23:45:24;;;;;;;10.07;3.80;;;;;;;7.53;63.00;100271.59;10427007;28;20041;-85
2022/09/22 23:50:26;;;;;;;8.35;4.07;;;;;;;7.55;62.99;100269.75;10420932;28;20454;-84
2022/09/22 23:55:27;;;;;;;7.70;3.67;;;;;;;7.52;62.58;100266.47;10436859;28;20049;-85
